DIWEL EDRY-EDDK
Flight info
| Callsign | DIWEL |
|---|---|
| Flight time | 0h 46m |
| Altitude | 16000 |
| Route | UMDAS Z12 KETEG DCT EBATU Z41 OLKAS T840 GULKO DCT COL |
| Aircraft | BE60/L-SDFGRY/C |
Departure
| Time | 2026-05-07 21:47 |
|---|---|
| Airport | Speyer Airfield (EDRY) |
Arrival
| Time | 2026-05-07 22:33 |
|---|---|
| Airport | Cologne Bonn Airport (EDDK) |
| Time | Latitude | Longitude | Altitude | Speed | Heading |
|---|---|---|---|---|---|
| 2026-05-07 21:41 | 49.30310 | 8.45422 | 328 ft | 0 kts | 255° |
| 2026-05-07 21:45 | 49.30309 | 8.45418 | 328 ft | 4 kts | 255° |
| 2026-05-07 21:45 | 49.30361 | 8.45348 | 328 ft | 17 kts | 345° |
| 2026-05-07 21:46 | 49.30498 | 8.45292 | 328 ft | 23 kts | 344° |
| 2026-05-07 21:46 | 49.30670 | 8.45223 | 329 ft | 28 kts | 343° |
| 2026-05-07 21:46 | 49.30843 | 8.45128 | 329 ft | 20 kts | 340° |
| 2026-05-07 21:46 | 49.30917 | 8.45019 | 329 ft | 15 kts | 240° |
| 2026-05-07 21:47 | 49.30768 | 8.45056 | 328 ft | 37 kts | 166° |
| 2026-05-07 21:47 | 49.30388 | 8.45211 | 326 ft | 80 kts | 165° |
| 2026-05-07 21:47 | 49.29688 | 8.45481 | 543 ft | 115 kts | 165° |
| 2026-05-07 21:47 | 49.28908 | 8.45806 | 1145 ft | 117 kts | 163° |
| 2026-05-07 21:48 | 49.28181 | 8.46328 | 1697 ft | 123 kts | 122° |
| 2026-05-07 21:48 | 49.28391 | 8.47627 | 1936 ft | 149 kts | 52° |
| 2026-05-07 21:48 | 49.29165 | 8.48855 | 2099 ft | 170 kts | 27° |
| 2026-05-07 21:48 | 49.30348 | 8.48807 | 2290 ft | 182 kts | 336° |
| 2026-05-07 21:49 | 49.31334 | 8.47847 | 2976 ft | 158 kts | 342° |
| 2026-05-07 21:49 | 49.32032 | 8.47804 | 3341 ft | 151 kts | 19° |
| 2026-05-07 21:49 | 49.32743 | 8.48862 | 3847 ft | 146 kts | 72° |
| 2026-05-07 21:49 | 49.32924 | 8.50874 | 4488 ft | 142 kts | 95° |
| 2026-05-07 21:50 | 49.32893 | 8.51883 | 4780 ft | 140 kts | 84° |
| 2026-05-07 21:50 | 49.33226 | 8.53772 | 5320 ft | 139 kts | 72° |
| 2026-05-07 21:50 | 49.33426 | 8.54706 | 5582 ft | 139 kts | 71° |
| 2026-05-07 21:50 | 49.33737 | 8.56123 | 5981 ft | 140 kts | 71° |
| 2026-05-07 21:51 | 49.34054 | 8.57546 | 6390 ft | 142 kts | 71° |
| 2026-05-07 21:51 | 49.34376 | 8.58988 | 6767 ft | 145 kts | 71° |
| 2026-05-07 21:51 | 49.34710 | 8.60480 | 7243 ft | 147 kts | 71° |
| 2026-05-07 21:51 | 49.35042 | 8.61965 | 7778 ft | 147 kts | 71° |
| 2026-05-07 21:52 | 49.35372 | 8.63445 | 8302 ft | 147 kts | 71° |
| 2026-05-07 21:52 | 49.35703 | 8.64930 | 8825 ft | 148 kts | 71° |
| 2026-05-07 21:52 | 49.36037 | 8.66423 | 9350 ft | 149 kts | 71° |
| 2026-05-07 21:52 | 49.36373 | 8.67930 | 9880 ft | 150 kts | 71° |
| 2026-05-07 21:53 | 49.36705 | 8.69426 | 10364 ft | 150 kts | 71° |
| 2026-05-07 21:53 | 49.37044 | 8.70948 | 10861 ft | 151 kts | 71° |
| 2026-05-07 21:53 | 49.37384 | 8.72477 | 11365 ft | 151 kts | 71° |
| 2026-05-07 21:53 | 49.37723 | 8.74004 | 11864 ft | 151 kts | 71° |
| 2026-05-07 21:54 | 49.38063 | 8.75537 | 12371 ft | 152 kts | 71° |
| 2026-05-07 21:54 | 49.38404 | 8.77069 | 12883 ft | 152 kts | 71° |
| 2026-05-07 21:54 | 49.38743 | 8.78600 | 13395 ft | 151 kts | 71° |
| 2026-05-07 21:54 | 49.39107 | 8.80109 | 13898 ft | 150 kts | 60° |
| 2026-05-07 21:55 | 49.39824 | 8.81243 | 14327 ft | 149 kts | 28° |
| 2026-05-07 21:55 | 49.40797 | 8.81708 | 14773 ft | 146 kts | 359° |
| 2026-05-07 21:55 | 49.41766 | 8.81458 | 15216 ft | 143 kts | 339° |
| 2026-05-07 21:55 | 49.42723 | 8.81041 | 15686 ft | 143 kts | 341° |
| 2026-05-07 21:56 | 49.43689 | 8.80625 | 16084 ft | 150 kts | 340° |
| 2026-05-07 21:56 | 49.44803 | 8.80134 | 16113 ft | 182 kts | 341° |
| 2026-05-07 21:56 | 49.46112 | 8.79561 | 16120 ft | 208 kts | 341° |
| 2026-05-07 21:56 | 49.47574 | 8.78927 | 16119 ft | 228 kts | 342° |
| 2026-05-07 21:57 | 49.49147 | 8.78244 | 16112 ft | 240 kts | 342° |
| 2026-05-07 21:57 | 49.50787 | 8.77527 | 16102 ft | 249 kts | 342° |
| 2026-05-07 21:57 | 49.52476 | 8.76785 | 16104 ft | 255 kts | 342° |
| 2026-05-07 21:57 | 49.54202 | 8.76030 | 16104 ft | 260 kts | 342° |
| 2026-05-07 21:58 | 49.55951 | 8.75263 | 16098 ft | 262 kts | 342° |
| 2026-05-07 21:58 | 49.57701 | 8.74495 | 16102 ft | 262 kts | 342° |
| 2026-05-07 21:58 | 49.59454 | 8.73724 | 16100 ft | 261 kts | 342° |
| 2026-05-07 21:58 | 49.61203 | 8.72954 | 16101 ft | 261 kts | 342° |
| 2026-05-07 21:59 | 49.62951 | 8.72184 | 16097 ft | 261 kts | 342° |
| 2026-05-07 21:59 | 49.64700 | 8.71415 | 16098 ft | 261 kts | 342° |
| 2026-05-07 21:59 | 49.66446 | 8.70645 | 16096 ft | 261 kts | 342° |
| 2026-05-07 21:59 | 49.68191 | 8.69873 | 16093 ft | 261 kts | 342° |
| 2026-05-07 22:00 | 49.69936 | 8.69102 | 16090 ft | 261 kts | 341° |
| 2026-05-07 22:00 | 49.71660 | 8.68341 | 16086 ft | 261 kts | 342° |
| 2026-05-07 22:00 | 49.73428 | 8.67560 | 16090 ft | 261 kts | 341° |
| 2026-05-07 22:00 | 49.75147 | 8.66793 | 16090 ft | 261 kts | 341° |
| 2026-05-07 22:01 | 49.76892 | 8.66024 | 16085 ft | 261 kts | 342° |
| 2026-05-07 22:01 | 49.78636 | 8.65253 | 16086 ft | 261 kts | 341° |
| 2026-05-07 22:01 | 49.80387 | 8.64476 | 16083 ft | 261 kts | 341° |
| 2026-05-07 22:01 | 49.82134 | 8.63700 | 16085 ft | 261 kts | 341° |
| 2026-05-07 22:02 | 49.83880 | 8.62924 | 16087 ft | 261 kts | 341° |
| 2026-05-07 22:02 | 49.85623 | 8.62149 | 16086 ft | 261 kts | 341° |
| 2026-05-07 22:02 | 49.87368 | 8.61372 | 16084 ft | 261 kts | 341° |
| 2026-05-07 22:02 | 49.89115 | 8.60595 | 16083 ft | 261 kts | 341° |
| 2026-05-07 22:03 | 49.90855 | 8.59819 | 16084 ft | 261 kts | 341° |
| 2026-05-07 22:03 | 49.92605 | 8.59039 | 16108 ft | 262 kts | 341° |
| 2026-05-07 22:03 | 49.94343 | 8.58263 | 16111 ft | 264 kts | 341° |
| 2026-05-07 22:03 | 49.96109 | 8.57475 | 16114 ft | 264 kts | 341° |
| 2026-05-07 22:04 | 49.97879 | 8.56683 | 16109 ft | 265 kts | 341° |
| 2026-05-07 22:04 | 49.99656 | 8.55889 | 16114 ft | 266 kts | 341° |
| 2026-05-07 22:04 | 50.01429 | 8.55094 | 16112 ft | 266 kts | 341° |
| 2026-05-07 22:04 | 50.03211 | 8.54297 | 16109 ft | 266 kts | 341° |
| 2026-05-07 22:05 | 50.04989 | 8.53486 | 16111 ft | 266 kts | 339° |
| 2026-05-07 22:05 | 50.06642 | 8.52239 | 16111 ft | 263 kts | 328° |
| 2026-05-07 22:05 | 50.08249 | 8.50868 | 16110 ft | 264 kts | 329° |
| 2026-05-07 22:05 | 50.09874 | 8.49534 | 16111 ft | 264 kts | 329° |
| 2026-05-07 22:06 | 50.11493 | 8.48187 | 16109 ft | 264 kts | 329° |
| 2026-05-07 22:06 | 50.13110 | 8.46831 | 16109 ft | 264 kts | 329° |
| 2026-05-07 22:06 | 50.14727 | 8.45476 | 16109 ft | 264 kts | 329° |
| 2026-05-07 22:06 | 50.16347 | 8.44119 | 16109 ft | 264 kts | 329° |
| 2026-05-07 22:07 | 50.17957 | 8.42770 | 16107 ft | 264 kts | 329° |
| 2026-05-07 22:07 | 50.19581 | 8.41406 | 16107 ft | 264 kts | 329° |
| 2026-05-07 22:07 | 50.21200 | 8.40054 | 16109 ft | 264 kts | 329° |
| 2026-05-07 22:07 | 50.22813 | 8.38693 | 16109 ft | 264 kts | 329° |
| 2026-05-07 22:08 | 50.24429 | 8.37331 | 16110 ft | 264 kts | 329° |
| 2026-05-07 22:08 | 50.26043 | 8.35962 | 16103 ft | 264 kts | 329° |
| 2026-05-07 22:08 | 50.27666 | 8.34604 | 16101 ft | 264 kts | 330° |
| 2026-05-07 22:08 | 50.29289 | 8.33244 | 16099 ft | 264 kts | 329° |
| 2026-05-07 22:09 | 50.30907 | 8.31875 | 16098 ft | 264 kts | 329° |
| 2026-05-07 22:09 | 50.32523 | 8.30509 | 16102 ft | 264 kts | 329° |
| 2026-05-07 22:09 | 50.34142 | 8.29139 | 16102 ft | 265 kts | 329° |
| 2026-05-07 22:09 | 50.35768 | 8.27766 | 16105 ft | 265 kts | 329° |
| 2026-05-07 22:10 | 50.37366 | 8.26414 | 16108 ft | 265 kts | 329° |
| 2026-05-07 22:10 | 50.38991 | 8.25036 | 16108 ft | 265 kts | 329° |
| 2026-05-07 22:10 | 50.40613 | 8.23662 | 16109 ft | 265 kts | 329° |
| 2026-05-07 22:10 | 50.42238 | 8.22284 | 16108 ft | 265 kts | 329° |
| 2026-05-07 22:11 | 50.43861 | 8.20907 | 16108 ft | 265 kts | 329° |
| 2026-05-07 22:11 | 50.45485 | 8.19526 | 16108 ft | 265 kts | 329° |
| 2026-05-07 22:11 | 50.47107 | 8.18147 | 16109 ft | 265 kts | 329° |
| 2026-05-07 22:11 | 50.48730 | 8.16766 | 16106 ft | 265 kts | 329° |
| 2026-05-07 22:12 | 50.50376 | 8.15364 | 15761 ft | 271 kts | 329° |
| 2026-05-07 22:12 | 50.52035 | 8.13951 | 15354 ft | 272 kts | 329° |
| 2026-05-07 22:12 | 50.53700 | 8.12532 | 14956 ft | 272 kts | 329° |
| 2026-05-07 22:12 | 50.55367 | 8.11109 | 14570 ft | 272 kts | 329° |
| 2026-05-07 22:13 | 50.57020 | 8.09697 | 14185 ft | 266 kts | 329° |
| 2026-05-07 22:13 | 50.58625 | 8.08327 | 13786 ft | 258 kts | 329° |
| 2026-05-07 22:13 | 50.60177 | 8.06996 | 13366 ft | 250 kts | 329° |
| 2026-05-07 22:13 | 50.61687 | 8.05702 | 12936 ft | 244 kts | 329° |
| 2026-05-07 22:14 | 50.63162 | 8.04436 | 12485 ft | 240 kts | 329° |
| 2026-05-07 22:14 | 50.64600 | 8.03202 | 12080 ft | 236 kts | 330° |
| 2026-05-07 22:14 | 50.66033 | 8.01972 | 11677 ft | 233 kts | 330° |
| 2026-05-07 22:14 | 50.67449 | 8.00756 | 11282 ft | 230 kts | 330° |
| 2026-05-07 22:15 | 50.68852 | 7.99551 | 10890 ft | 228 kts | 330° |
| 2026-05-07 22:15 | 50.70238 | 7.98359 | 10511 ft | 226 kts | 330° |
| 2026-05-07 22:15 | 50.71614 | 7.97174 | 10137 ft | 224 kts | 330° |
| 2026-05-07 22:15 | 50.72942 | 7.96026 | 10071 ft | 210 kts | 330° |
| 2026-05-07 22:16 | 50.74170 | 7.94906 | 10062 ft | 198 kts | 323° |
| 2026-05-07 22:16 | 50.75091 | 7.93346 | 9954 ft | 197 kts | 302° |
| 2026-05-07 22:16 | 50.75614 | 7.91287 | 9808 ft | 208 kts | 280° |
| 2026-05-07 22:16 | 50.75783 | 7.88990 | 9695 ft | 213 kts | 276° |
| 2026-05-07 22:17 | 50.75951 | 7.86639 | 9592 ft | 217 kts | 276° |
| 2026-05-07 22:17 | 50.76122 | 7.84258 | 9496 ft | 219 kts | 276° |
| 2026-05-07 22:17 | 50.76293 | 7.81861 | 9400 ft | 221 kts | 276° |
| 2026-05-07 22:17 | 50.76469 | 7.79384 | 9105 ft | 232 kts | 276° |
| 2026-05-07 22:18 | 50.76651 | 7.76823 | 8826 ft | 237 kts | 277° |
| 2026-05-07 22:18 | 50.77018 | 7.71613 | 8273 ft | 239 kts | 277° |
| 2026-05-07 22:18 | 50.77202 | 7.69001 | 8003 ft | 239 kts | 277° |
| 2026-05-07 22:19 | 50.77385 | 7.66390 | 7740 ft | 239 kts | 277° |
| 2026-05-07 22:19 | 50.77563 | 7.63817 | 7472 ft | 238 kts | 277° |
| 2026-05-07 22:19 | 50.77743 | 7.61218 | 7209 ft | 238 kts | 277° |
| 2026-05-07 22:19 | 50.77921 | 7.58651 | 7101 ft | 230 kts | 277° |
| 2026-05-07 22:20 | 50.78090 | 7.56180 | 7099 ft | 223 kts | 277° |
| 2026-05-07 22:20 | 50.78255 | 7.53773 | 7096 ft | 218 kts | 277° |
| 2026-05-07 22:20 | 50.78418 | 7.51412 | 7099 ft | 215 kts | 277° |
| 2026-05-07 22:20 | 50.78576 | 7.49079 | 7095 ft | 213 kts | 277° |
| 2026-05-07 22:21 | 50.78734 | 7.46763 | 7096 ft | 211 kts | 277° |
| 2026-05-07 22:21 | 50.78891 | 7.44454 | 7087 ft | 211 kts | 277° |
| 2026-05-07 22:21 | 50.79050 | 7.42116 | 7097 ft | 217 kts | 277° |
| 2026-05-07 22:21 | 50.79212 | 7.39723 | 7098 ft | 221 kts | 277° |
| 2026-05-07 22:22 | 50.79375 | 7.37287 | 7103 ft | 224 kts | 277° |
| 2026-05-07 22:22 | 50.79540 | 7.34826 | 7111 ft | 226 kts | 277° |
| 2026-05-07 22:22 | 50.79705 | 7.32377 | 7108 ft | 227 kts | 277° |
| 2026-05-07 22:22 | 50.79871 | 7.29889 | 7110 ft | 228 kts | 277° |
| 2026-05-07 22:23 | 50.80036 | 7.27388 | 7071 ft | 230 kts | 277° |
| 2026-05-07 22:23 | 50.80161 | 7.24838 | 6927 ft | 235 kts | 269° |
| 2026-05-07 22:23 | 50.79796 | 7.22299 | 6784 ft | 240 kts | 249° |
| 2026-05-07 22:23 | 50.79071 | 7.19909 | 6646 ft | 242 kts | 245° |
| 2026-05-07 22:24 | 50.78340 | 7.17518 | 6522 ft | 242 kts | 245° |
| 2026-05-07 22:24 | 50.77614 | 7.15112 | 6378 ft | 242 kts | 245° |
| 2026-05-07 22:24 | 50.76880 | 7.12691 | 6135 ft | 245 kts | 245° |
| 2026-05-07 22:24 | 50.76136 | 7.10250 | 5885 ft | 247 kts | 245° |
| 2026-05-07 22:25 | 50.75391 | 7.07801 | 5647 ft | 248 kts | 245° |
| 2026-05-07 22:25 | 50.74652 | 7.05377 | 5403 ft | 239 kts | 245° |
| 2026-05-07 22:25 | 50.73948 | 7.03077 | 5152 ft | 227 kts | 245° |
| 2026-05-07 22:25 | 50.73268 | 7.00868 | 4895 ft | 221 kts | 244° |
| 2026-05-07 22:26 | 50.72616 | 6.98726 | 4797 ft | 211 kts | 245° |
| 2026-05-07 22:26 | 50.71992 | 6.96679 | 4708 ft | 204 kts | 245° |
| 2026-05-07 22:26 | 50.71381 | 6.94684 | 4613 ft | 200 kts | 244° |
| 2026-05-07 22:26 | 50.70809 | 6.92702 | 4508 ft | 197 kts | 252° |
| 2026-05-07 22:27 | 50.70661 | 6.90605 | 4380 ft | 195 kts | 275° |
| 2026-05-07 22:27 | 50.71007 | 6.88565 | 4264 ft | 193 kts | 296° |
| 2026-05-07 22:27 | 50.71800 | 6.86865 | 4050 ft | 195 kts | 318° |
| 2026-05-07 22:27 | 50.72950 | 6.85714 | 3788 ft | 198 kts | 335° |
| 2026-05-07 22:28 | 50.74213 | 6.84827 | 3533 ft | 199 kts | 342° |
| 2026-05-07 22:28 | 50.75583 | 6.84588 | 3272 ft | 200 kts | 6° |
| 2026-05-07 22:28 | 50.76906 | 6.85188 | 3083 ft | 196 kts | 28° |
| 2026-05-07 22:28 | 50.77953 | 6.86459 | 3078 ft | 186 kts | 49° |
| 2026-05-07 22:29 | 50.78627 | 6.88152 | 3073 ft | 180 kts | 65° |
| 2026-05-07 22:29 | 50.79163 | 6.89928 | 3068 ft | 178 kts | 64° |
| 2026-05-07 22:29 | 50.79697 | 6.91653 | 3088 ft | 172 kts | 64° |
| 2026-05-07 22:29 | 50.80213 | 6.93339 | 3054 ft | 170 kts | 64° |
| 2026-05-07 22:30 | 50.80729 | 6.95065 | 2831 ft | 175 kts | 65° |
| 2026-05-07 22:30 | 50.81219 | 6.96784 | 2729 ft | 163 kts | 66° |
| 2026-05-07 22:30 | 50.81653 | 6.98341 | 2524 ft | 151 kts | 65° |
| 2026-05-07 22:30 | 50.82113 | 6.99879 | 2094 ft | 158 kts | 65° |
| 2026-05-07 22:31 | 50.82596 | 7.01443 | 1846 ft | 157 kts | 64° |
| 2026-05-07 22:31 | 50.83099 | 7.02965 | 1649 ft | 155 kts | 63° |
| 2026-05-07 22:31 | 50.83585 | 7.04466 | 1491 ft | 152 kts | 64° |
| 2026-05-07 22:31 | 50.84043 | 7.05913 | 1260 ft | 138 kts | 65° |
| 2026-05-07 22:32 | 50.84432 | 7.07228 | 1025 ft | 129 kts | 66° |
| 2026-05-07 22:32 | 50.84805 | 7.08451 | 858 ft | 117 kts | 63° |
| 2026-05-07 22:32 | 50.85148 | 7.09548 | 691 ft | 107 kts | 64° |
| 2026-05-07 22:32 | 50.85475 | 7.10616 | 553 ft | 107 kts | 63° |
| 2026-05-07 22:33 | 50.85778 | 7.11582 | 447 ft | 89 kts | 64° |
| 2026-05-07 22:33 | 50.86042 | 7.12485 | 313 ft | 95 kts | 63° |
| 2026-05-07 22:33 | 50.86317 | 7.13384 | 244 ft | 76 kts | 64° |
| 2026-05-07 22:33 | 50.86503 | 7.13988 | 247 ft | 49 kts | 64° |
| 2026-05-07 22:34 | 50.86626 | 7.14387 | 252 ft | 33 kts | 45° |
| 2026-05-07 22:34 | 50.86780 | 7.14288 | 251 ft | 25 kts | 317° |
| 2026-05-07 22:34 | 50.86901 | 7.14116 | 246 ft | 23 kts | 317° |
| 2026-05-07 22:34 | 50.87021 | 7.13937 | 242 ft | 24 kts | 318° |
| 2026-05-07 22:35 | 50.87154 | 7.13755 | 237 ft | 26 kts | 315° |
| 2026-05-07 22:35 | 50.87286 | 7.13556 | 233 ft | 27 kts | 315° |
| 2026-05-07 22:35 | 50.87379 | 7.13419 | 230 ft | 28 kts | 319° |
| 2026-05-07 22:35 | 50.87531 | 7.13203 | 226 ft | 30 kts | 318° |
| 2026-05-07 22:36 | 50.87715 | 7.12936 | 225 ft | 24 kts | 318° |
| 2026-05-07 22:36 | 50.87789 | 7.12749 | 224 ft | 19 kts | 252° |
| 2026-05-07 22:36 | 50.87754 | 7.12558 | 224 ft | 17 kts | 237° |
| 2026-05-07 22:36 | 50.87689 | 7.12508 | 224 ft | 16 kts | 197° |
| 2026-05-07 22:37 | 50.87566 | 7.12446 | 224 ft | 23 kts | 197° |
| 2026-05-07 22:37 | 50.87415 | 7.12369 | 224 ft | 22 kts | 198° |
| 2026-05-07 22:37 | 50.87283 | 7.12301 | 224 ft | 16 kts | 197° |
| 2026-05-07 22:37 | 50.87250 | 7.12327 | 224 ft | 6 kts | 103° |
| 2026-05-07 22:38 | 50.87266 | 7.12381 | 224 ft | 6 kts | 45° |
| 2026-05-07 22:38 | 50.87295 | 7.12428 | 224 ft | 6 kts | 47° |
| 2026-05-07 22:38 | 50.87312 | 7.12473 | 224 ft | 4 kts | 130° |
| 2026-05-07 22:38 | 50.87301 | 7.12489 | 224 ft | 0 kts | 136° |